Current Conditions

Updated: 17-Jan-2018 09:41 AM  
Summary / Temperature Wind Rain






Feels like: 49°F

1-hour difference
0.5°F 0.5°F warmer than last hour.

24-hour difference
0.5°F0.5°F colder than yesterday at this time.

  Today Yesterday
High: 50.3°F
12:00 AM
56.1°F
3:16 PM
Low: 48.1°F
7:21 AM
45.9°F
12:40 AM
Wind from E E
0.7
Gust:  2.0 mph
0 Beaufort - Calm

Today: 4.0 - 6:03 AM
Month: 11.5 mph - Jan 10
Rain Today: 0.01 in
Current Rate (/hr): 0.000 in
Max Rate (/hr):
Rain Yesterday: 0.01 in
Storm Rain: 0.00 in
This Month: 0.82 in
Season Total: 1.55 in
Last Rain Event: Today
Humidity / Barometer Sun / Moon
Humidity: 97 Increased 1.0% in the last hour.
Dew Point: 48.3°F Increased 0.8°F in the last hour.
Barometer: 30.299 inHg  
Baro Trend: Steady
Sunrise: 7:06 AM
Sunset: 5:06 PM
Moonrise: 7:26 AM
Moonset: 4:57 PM
Sky Conditions UV Index
Summary: Mist, Overcast
Visibility: 1 ¼ miles
Clouds: Overcast @ 300 ft
KVIS - 8:56 AM PST
Current: 0.0  None 
Wednesday: 2.3  Low 
Thursday: 2.4  Low 
Air Quality Fire Danger
 Moderate 
Ozone 9 ppb
PM 2.5 21 μg/m3
9:40 AM PST
Current: 0  Low 

Local Alerts Local Forecast
Local NWS Alerts
Today

Partly
Cloudy
High 60
Tonight

Partly
Cloudy
Low 41
Thu

Rain
Showers
High 64
Thu night

Chance of
Rain
Low 44
Fri

Chance of
Rain
High 56
Fri night

Rain
Showers
Low 34
Sat

Partly
Cloudy
High 54

Local Radar Local Satellite Neighborhood Cam Sky Cam
Local Radar Local Satellite Neighborhood Cam Sky Cam


Nearby Personal Stations

Weather Underground PWS KCAEXETE7     Weather Underground PWS KCAEXETE6     Weather Underground PWS KCAEXETE11

Nearby Airport Stations

KVIS - Visalia, California, USA
Distance from station: W 14mi, 23km
Updated: Wed, 17-Jan-2018 8:56am PST
Mist, Overcast
Mist, Overcast
 Wind from ESE
Wind: ESE 5 mph , 7 km/h
Temperature: 48°F , 9°C
Wind Chill: 46°F , 8°C
Dew Point: 48°F , 9°C
Humidity: 100%
Barometer: 30.29 inHg , 1025.7 hPa
Summary: Mist
Clouds: Overcast
Visibility: 1 1/4 miles , 2 km
Cloud details: Overcast 300 ft
2018/01/17 16:56 KVIS 171656Z AUTO 11004KT 1 1/4SM BR OVC003 09/09 A3029 RMK AO2 SLP268 T00890089
KPTV - Porterville, California, USA
Distance from station: SSE 19mi, 31km
Updated: Wed, 17-Jan-2018 9:35am PST
Fog, Overcast
Fog, Overcast
 Wind from SE
Wind: SE 5 mph , 7 km/h
Temperature: 48°F , 9°C
Wind Chill: 46°F , 8°C
Dew Point: 46°F , 8°C
Humidity: 94%
Barometer: 30.30 inHg , 1026.1 hPa
Summary: Fog
Clouds: Overcast
Visibility: 1/2 mile , 2 km
Cloud details: Overcast 300 ft
2018/01/17 17:35 KPTV 171735Z AUTO 13004KT 1/2SM FG OVC003 09/08 A3030 RMK AO2

Metar display script from Saratoga-Weather.org



Visitor Map